Almont, Michigan
Current Conditions -  °F | °C
As of 8:33 PM on Sunday 23 Nov 2014 (Local Time) from KD95 Reporting Station
Moderate Rain Moderate Rain  
Wind Chill: 43°   Ceiling: 9000
Heat Index: 47°   Visibility: 10mi
Dew Point: 43°   Wind: 9mph
Humidity: 86%   Direction: 140°SE
Pressure: 29.51"   Gusts: 16mph
Location:  42.92°N, 83.04°W
Report Text: KD95 240133Z AUTO 14008G14KT 10SM RA OVC090 09/06 A2951 RMK AO2 P0001 T00860063
Loading
Personal Weather Stations






























Interactive Weather Map New forecast layout! Learn more

10-Day Weather Forecast

Advertisements
Track Severe Weather on mobile